Time;durP1;ratioP1;P1;durP2;ratioP2;P2;SDS_P1;SDS_P2;PMS_P1;PMS_P2;Temp;Humidity;BMP_temperature;BMP_pressure;BME280_temperature;BME280_humidity;BME280_pressure;Samples;Min_cycle;Max_cycle;Signal;HPM_P1;HPM_P2
2022/09/04 00:02:26;;;;;;;5.70;2.30;;;18.40;99.90;;;;;;5116392;28;20031;-81
2022/09/04 00:04:58;;;;;;;3.10;2.55;;;18.50;99.90;;;;;;5118399;28;20376;-81
2022/09/04 00:07:59;;;;;;;5.18;2.70;;;18.40;99.90;;;;;;5117275;28;20084;-81
2022/09/04 00:11:03;;;;;;;4.80;2.72;;;18.40;99.90;;;;;;5116840;28;20026;-81
2022/09/04 00:13:50;;;;;;;4.45;2.50;;;18.30;99.90;;;;;;5117937;28;20049;-81
2022/09/04 00:16:26;;;;;;;4.03;2.67;;;18.40;99.90;;;;;;5115827;28;20476;-81
2022/09/04 00:19:02;;;;;;;5.00;2.70;;;18.30;99.90;;;;;;5115760;28;20031;-81
2022/09/04 00:21:43;;;;;;;3.45;2.28;;;18.30;99.90;;;;;;5120257;28;20504;-81
2022/09/04 00:24:16;;;;;;;5.45;2.38;;;18.40;99.90;;;;;;5116597;28;20039;-81
2022/09/04 00:27:06;;;;;;;4.78;2.42;;;18.30;99.90;;;;;;5120060;28;20524;-81
2022/09/04 00:29:37;;;;;;;4.38;2.25;;;18.30;99.90;;;;;;5117333;28;20042;-81
2022/09/04 00:32:03;;;;;;;4.05;2.38;;;18.40;99.90;;;;;;5117919;28;20026;-81
2022/09/04 00:34:46;;;;;;;4.90;2.30;;;18.30;99.90;;;;;;5118296;28;20488;-81
2022/09/04 00:37:17;;;;;;;2.35;2.15;;;18.40;99.90;;;;;;5117900;28;20020;-81
2022/09/04 00:40:08;;;;;;;2.90;2.10;;;18.40;99.90;;;;;;5116804;28;20057;-81
2022/09/04 00:43:00;;;;;;;3.65;2.25;;;18.20;99.90;;;;;;5116386;28;20043;-81
2022/09/04 00:46:01;;;;;;;3.25;2.05;;;18.40;99.90;;;;;;5118926;28;20019;-81
2022/09/04 00:49:04;;;;;;;3.72;2.15;;;18.40;99.90;;;;;;5125598;28;20071;-81
2022/09/04 00:51:52;;;;;;;11.18;2.25;;;18.50;99.90;;;;;;5122920;28;20054;-81
2022/09/04 00:54:50;;;;;;;6.63;2.30;;;18.50;99.90;;;;;;5120459;28;20027;-81
2022/09/04 00:57:28;;;;;;;3.17;2.42;;;18.50;99.90;;;;;;5119738;28;20038;-81
2022/09/04 01:00:14;;;;;;;4.13;2.83;;;18.40;99.90;;;;;;5119964;28;20484;-81
2022/09/04 01:03:10;;;;;;;4.60;2.30;;;18.20;99.90;;;;;;5120474;28;20026;-81
2022/09/04 01:05:57;;;;;;;5.13;2.42;;;18.30;99.90;;;;;;5118733;28;20384;-81
2022/09/04 01:08:45;;;;;;;4.43;2.45;;;18.40;99.90;;;;;;5116418;28;20027;-81
2022/09/04 01:11:10;;;;;;;5.22;2.83;;;18.30;99.90;;;;;;5117819;28;20023;-81
2022/09/04 01:13:49;;;;;;;3.90;2.67;;;18.10;99.90;;;;;;5119341;28;20031;-81
2022/09/04 01:16:36;;;;;;;3.83;2.80;;;18.00;99.90;;;;;;5118384;28;20281;-81
2022/09/04 01:19:46;;;;;;;3.90;2.73;;;18.10;99.90;;;;;;5119083;28;20102;-81
2022/09/04 01:22:34;;;;;;;5.40;3.17;;;18.10;99.90;;;;;;5118496;28;20019;-81
2022/09/04 01:25:15;;;;;;;4.47;2.85;;;18.10;99.90;;;;;;5117623;28;20139;-81
2022/09/04 01:28:18;;;;;;;6.65;3.17;;;18.10;99.90;;;;;;5118734;28;20031;-81
2022/09/04 01:31:06;;;;;;;4.57;2.90;;;18.10;99.90;;;;;;5119359;28;20020;-81
2022/09/04 01:34:01;;;;;;;7.20;3.20;;;18.10;99.90;;;;;;5119904;28;20016;-81
2022/09/04 01:36:32;;;;;;;7.60;2.85;;;17.90;99.90;;;;;;5092674;28;20039;-81
2022/09/04 01:39:00;;;;;;;3.22;2.92;;;18.00;99.90;;;;;;5119715;28;20073;-81
2022/09/04 01:41:34;;;;;;;5.60;3.22;;;18.00;99.90;;;;;;5118997;28;20031;-81
2022/09/04 01:44:04;;;;;;;6.90;3.25;;;18.10;99.90;;;;;;5119123;28;20037;-81
2022/09/04 01:46:48;;;;;;;5.50;3.03;;;18.10;99.90;;;;;;5118227;28;20020;-81
2022/09/04 01:49:21;;;;;;;6.53;2.88;;;18.00;99.90;;;;;;5117888;28;20028;-81
2022/09/04 01:52:10;;;;;;;5.75;2.95;;;17.80;99.90;;;;;;5115360;28;20164;-81
2022/09/04 01:54:58;;;;;;;8.27;3.25;;;17.80;99.90;;;;;;5117008;28;20043;-81
2022/09/04 01:57:45;;;;;;;5.50;3.22;;;17.90;99.90;;;;;;5124118;28;20083;-80
2022/09/04 02:00:13;;;;;;;7.18;3.03;;;18.00;99.90;;;;;;5124531;28;20084;-80
2022/09/04 02:03:01;;;;;;;4.75;3.05;;;17.90;99.90;;;;;;5117112;28;20031;-80
2022/09/04 02:05:41;;;;;;;4.20;3.00;;;17.90;99.90;;;;;;5119715;28;20055;-80
2022/09/04 02:08:35;;;;;;;5.07;2.83;;;17.90;99.90;;;;;;5117352;28;20110;-80
2022/09/04 02:11:04;;;;;;;3.72;2.70;;;17.90;99.90;;;;;;5117170;28;20027;-80
2022/09/04 02:13:43;;;;;;;7.32;2.67;;;17.80;99.90;;;;;;5118198;28;20042;-80
2022/09/04 02:16:41;;;;;;;5.30;2.83;;;17.80;99.90;;;;;;5121449;28;20046;-80
2022/09/04 02:19:36;;;;;;;4.70;2.78;;;17.90;99.90;;;;;;5130347;28;20035;-82
2022/09/04 02:22:30;;;;;;;6.18;3.35;;;17.80;99.90;;;;;;5135238;28;20016;-82
2022/09/04 02:25:03;;;;;;;5.22;3.08;;;17.80;99.90;;;;;;5131057;28;20016;-82
2022/09/04 02:27:59;;;;;;;3.95;2.67;;;17.70;99.90;;;;;;5126026;28;20034;-82
2022/09/04 02:30:29;;;;;;;6.25;3.70;;;17.60;99.90;;;;;;5120387;28;20032;-82
2022/09/04 02:33:10;;;;;;;5.57;3.05;;;17.70;99.90;;;;;;5119239;28;20088;-82
2022/09/04 02:35:48;;;;;;;7.78;3.70;;;17.50;99.90;;;;;;5120750;27;20428;-82
2022/09/04 02:38:26;;;;;;;4.68;3.15;;;17.50;99.90;;;;;;5119672;28;20019;-82
2022/09/04 02:41:02;;;;;;;4.45;3.00;;;17.60;99.90;;;;;;5119747;28;20409;-81
2022/09/04 02:43:50;;;;;;;4.93;3.05;;;17.70;99.90;;;;;;5120172;28;20024;-81
2022/09/04 02:46:34;;;;;;;4.28;2.70;;;17.60;99.90;;;;;;5118150;28;20160;-81
2022/09/04 02:49:12;;;;;;;3.67;2.55;;;17.60;99.90;;;;;;5119846;28;20464;-81
2022/09/04 02:52:11;;;;;;;5.60;2.50;;;17.50;99.90;;;;;;5118068;28;20499;-81
2022/09/04 02:55:13;;;;;;;3.60;2.78;;;17.50;99.90;;;;;;5119473;28;20069;-81
2022/09/04 02:57:53;;;;;;;3.30;2.50;;;17.50;99.90;;;;;;5118588;28;20020;-81
2022/09/04 03:00:44;;;;;;;4.57;2.78;;;17.40;99.90;;;;;;5119023;28;20016;-81
2022/09/04 03:03:18;;;;;;;7.68;3.17;;;17.40;99.90;;;;;;5117520;28;20476;-81
2022/09/04 03:05:51;;;;;;;2.90;2.53;;;17.40;99.90;;;;;;5118139;28;20464;-81
2022/09/04 03:08:35;;;;;;;3.65;2.90;;;17.40;99.90;;;;;;5117803;28;20059;-81
2022/09/04 03:11:14;;;;;;;6.40;3.25;;;17.30;99.90;;;;;;5118316;28;20027;-81
2022/09/04 03:13:58;;;;;;;5.45;3.10;;;17.40;99.90;;;;;;5117151;28;20031;-81
2022/09/04 03:16:46;;;;;;;3.72;2.90;;;17.30;99.90;;;;;;5118671;28;20039;-81
2022/09/04 03:19:18;;;;;;;3.72;3.05;;;17.40;99.90;;;;;;5118748;28;20028;-81
2022/09/04 03:22:05;;;;;;;5.78;2.95;;;17.50;99.90;;;;;;5117152;28;20080;-80
2022/09/04 03:25:05;;;;;;;3.85;2.33;;;17.50;99.90;;;;;;5122200;28;20387;-80
2022/09/04 03:27:32;;;;;;;4.65;2.78;;;17.50;99.90;;;;;;5123026;28;20064;-80
2022/09/04 03:30:12;;;;;;;4.72;2.40;;;17.30;99.90;;;;;;5120623;28;20091;-80
2022/09/04 03:33:06;;;;;;;3.78;2.60;;;17.40;99.90;;;;;;5122452;28;20024;-80
2022/09/04 03:35:38;;;;;;;4.53;2.58;;;17.40;99.90;;;;;;5121915;28;20095;-80
2022/09/04 03:38:12;;;;;;;7.55;2.85;;;17.50;99.90;;;;;;5122739;28;20091;-81
2022/09/04 03:40:41;;;;;;;4.30;2.47;;;17.50;99.90;;;;;;5122398;28;20024;-80
2022/09/04 03:43:25;;;;;;;5.53;2.83;;;17.40;99.90;;;;;;5121149;28;20503;-80
2022/09/04 03:46:02;;;;;;;4.32;2.70;;;17.50;99.90;;;;;;5120346;28;20473;-80
2022/09/04 03:48:28;;;;;;;3.75;2.42;;;17.60;99.90;;;;;;5120791;28;20030;-80
2022/09/04 03:51:03;;;;;;;4.20;2.55;;;17.50;99.90;;;;;;5119671;28;20023;-80
2022/09/04 03:53:46;;;;;;;5.50;3.20;;;17.50;99.90;;;;;;5119325;28;20028;-80
2022/09/04 03:56:34;;;;;;;3.45;2.63;;;17.50;99.90;;;;;;5120886;28;20031;-80
2022/09/04 03:59:14;;;;;;;8.35;3.30;;;17.40;99.90;;;;;;5119559;28;20020;-79
2022/09/04 04:01:53;;;;;;;3.28;2.70;;;17.30;99.90;;;;;;5121927;28;20024;-79
2022/09/04 04:04:37;;;;;;;5.18;2.80;;;17.30;99.90;;;;;;5121710;28;20027;-79
2022/09/04 04:07:20;;;;;;;5.30;3.05;;;17.30;99.90;;;;;;5120552;28;20135;-79
2022/09/04 04:09:52;;;;;;;4.10;2.85;;;17.10;99.90;;;;;;5120383;28;20031;-79
2022/09/04 04:12:27;;;;;;;5.72;3.60;;;17.20;99.90;;;;;;5121209;28;20019;-79
2022/09/04 04:15:15;;;;;;;4.57;2.72;;;17.20;99.90;;;;;;5120825;28;20041;-79
2022/09/04 04:18:21;;;;;;;6.38;3.00;;;17.20;99.90;;;;;;5117898;28;20019;-79
2022/09/04 04:20:58;;;;;;;5.32;3.22;;;17.20;99.90;;;;;;5119281;28;20384;-79
2022/09/04 04:23:46;;;;;;;5.25;2.90;;;17.20;99.90;;;;;;5119362;28;20024;-79
2022/09/04 04:26:11;;;;;;;;;;;17.30;99.90;;;;;;5119337;28;20079;-78
2022/09/04 04:29:07;;;;;;;4.25;2.90;;;17.30;99.90;;;;;;5118990;28;20389;-78
2022/09/04 04:32:15;;;;;;;3.20;2.90;;;17.30;99.90;;;;;;5120336;28;20606;-78
2022/09/04 04:35:07;;;;;;;5.38;2.92;;;17.20;99.90;;;;;;5118188;28;20023;-79
2022/09/04 04:38:00;;;;;;;5.53;2.78;;;17.30;99.90;;;;;;5117475;28;20049;-78
2022/09/04 04:40:45;;;;;;;4.35;3.03;;;17.30;99.90;;;;;;5117087;28;20024;-77
2022/09/04 04:43:22;;;;;;;3.83;2.72;;;17.20;99.90;;;;;;5117046;27;20024;-77
2022/09/04 04:46:02;;;;;;;4.40;2.90;;;17.10;99.90;;;;;;5115502;28;20039;-76
2022/09/04 04:48:39;;;;;;;5.25;2.97;;;17.10;99.90;;;;;;5115156;28;20016;-76
2022/09/04 04:51:40;;;;;;;5.28;3.58;;;17.10;99.90;;;;;;5113395;28;20062;-76
2022/09/04 04:54:08;;;;;;;6.93;3.28;;;17.10;99.90;;;;;;5115226;28;20043;-76
2022/09/04 04:56:49;;;;;;;6.15;3.15;;;17.10;99.90;;;;;;5114519;28;20026;-75
2022/09/04 04:59:29;;;;;;;4.05;3.13;;;17.00;99.90;;;;;;5114702;28;20482;-75
2022/09/04 05:02:15;;;;;;;6.07;2.90;;;16.90;99.90;;;;;;5114758;28;20043;-75
2022/09/04 05:05:04;;;;;;;4.53;3.40;;;17.00;99.90;;;;;;5114740;28;20489;-76
2022/09/04 05:07:42;;;;;;;3.35;2.60;;;17.00;99.90;;;;;;5114517;28;20146;-76
2022/09/04 05:10:26;;;;;;;3.63;3.25;;;16.90;99.90;;;;;;5114503;28;20134;-76
2022/09/04 05:13:29;;;;;;;6.03;3.03;;;16.90;99.90;;;;;;5115819;28;20539;-75
2022/09/04 05:16:00;;;;;;;4.28;3.00;;;16.80;99.90;;;;;;5112884;28;20040;-75
2022/09/04 05:18:52;;;;;;;4.40;3.20;;;16.90;99.90;;;;;;5114329;28;20051;-75
2022/09/04 05:21:33;;;;;;;4.93;3.00;;;16.90;99.90;;;;;;5084435;28;20038;-75
2022/09/04 05:24:03;;;;;;;4.18;2.88;;;16.90;99.90;;;;;;5114671;28;20027;-74
2022/09/04 05:26:35;;;;;;;3.85;2.88;;;16.90;99.90;;;;;;5114168;28;20036;-73
2022/09/04 05:29:18;;;;;;;8.18;2.97;;;17.00;99.90;;;;;;5114257;28;20012;-73
2022/09/04 05:32:22;;;;;;;6.03;3.45;;;16.90;99.90;;;;;;5113086;28;20019;-73
2022/09/04 05:35:16;;;;;;;4.28;3.30;;;17.00;99.90;;;;;;5103341;28;20027;-73
2022/09/04 05:37:48;;;;;;;5.38;3.58;;;17.10;99.90;;;;;;5114629;28;20039;-73
2022/09/04 05:40:48;;;;;;;6.22;4.28;;;17.10;99.90;;;;;;5112921;28;20042;-74
2022/09/04 05:43:35;;;;;;;7.05;3.72;;;17.10;99.90;;;;;;5113946;28;20099;-74
2022/09/04 05:46:16;;;;;;;4.82;3.63;;;17.10;99.90;;;;;;5113795;28;20051;-74
2022/09/04 05:48:59;;;;;;;7.50;3.55;;;17.10;99.90;;;;;;5114441;28;20365;-74
2022/09/04 05:51:49;;;;;;;4.82;3.30;;;17.20;99.90;;;;;;5114569;28;20031;-73
2022/09/04 05:54:23;;;;;;;5.63;3.38;;;17.20;99.90;;;;;;5113764;28;20076;-73
2022/09/04 05:57:19;;;;;;;5.45;3.30;;;17.30;99.90;;;;;;5113603;28;20035;-73
2022/09/04 05:59:53;;;;;;;6.95;3.60;;;17.30;99.90;;;;;;5113606;28;20038;-73
2022/09/04 06:02:18;;;;;;;6.18;3.78;;;17.20;99.90;;;;;;5115819;28;20039;-73
2022/09/04 06:05:27;;;;;;;6.57;3.60;;;17.30;99.90;;;;;;5114495;28;20023;-73
2022/09/04 06:08:36;;;;;;;5.07;4.00;;;17.40;99.90;;;;;;5112384;28;20034;-73
2022/09/04 06:11:39;;;;;;;5.05;3.70;;;17.30;99.90;;;;;;5113564;28;20031;-73
2022/09/04 06:14:38;;;;;;;5.28;4.03;;;17.50;99.90;;;;;;5113718;28;20043;-73
2022/09/04 06:17:33;;;;;;;4.47;3.70;;;17.60;99.90;;;;;;5113519;28;20373;-72
2022/09/04 06:20:20;;;;;;;5.47;3.90;;;17.60;99.90;;;;;;5113335;28;20027;-72
2022/09/04 06:22:57;;;;;;;5.57;4.13;;;17.70;99.90;;;;;;5113346;28;20445;-72
2022/09/04 06:25:31;;;;;;;10.05;4.40;;;17.70;99.90;;;;;;5113760;28;20030;-71
2022/09/04 06:28:22;;;;;;;6.97;4.35;;;17.80;99.90;;;;;;5116000;28;20020;-71
2022/09/04 06:31:08;;;;;;;5.93;4.28;;;17.80;99.90;;;;;;5117688;28;20016;-71
2022/09/04 06:33:34;;;;;;;6.40;4.18;;;17.80;99.90;;;;;;5118333;28;20030;-71
2022/09/04 06:36:07;;;;;;;5.90;3.83;;;17.90;99.90;;;;;;5118302;28;20019;-71
2022/09/04 06:39:03;;;;;;;6.43;3.55;;;18.00;99.90;;;;;;5117355;28;20278;-71
2022/09/04 06:41:44;;;;;;;4.97;4.00;;;18.00;99.90;;;;;;5118232;28;20032;-71
2022/09/04 06:44:37;;;;;;;8.45;3.67;;;18.10;99.90;;;;;;5118460;28;20110;-71
2022/09/04 06:47:49;;;;;;;5.28;3.78;;;18.10;99.90;;;;;;5125784;28;20024;-71
2022/09/04 06:50:34;;;;;;;7.85;4.40;;;18.30;99.90;;;;;;5093515;28;20032;-71
2022/09/04 06:53:29;;;;;;;5.47;4.50;;;18.30;99.90;;;;;;5118060;28;20023;-71
2022/09/04 06:56:11;;;;;;;6.10;4.70;;;18.40;99.90;;;;;;5102199;28;20039;-72
2022/09/04 06:58:43;;;;;;;5.53;4.38;;;18.40;99.90;;;;;;5116676;28;20111;-72
2022/09/04 07:01:29;;;;;;;6.25;4.60;;;18.60;99.90;;;;;;5120083;28;20023;-71
2022/09/04 07:04:01;;;;;;;10.77;4.73;;;18.60;99.90;;;;;;5118596;28;20498;-72
2022/09/04 07:07:01;;;;;;;10.57;5.13;;;18.70;99.90;;;;;;5119621;28;20024;-71
2022/09/04 07:09:34;;;;;;;6.63;5.18;;;18.90;99.90;;;;;;5118300;28;20031;-72
2022/09/04 07:12:12;;;;;;;5.18;4.45;;;19.00;99.90;;;;;;5120525;27;20012;-72
2022/09/04 07:14:50;;;;;;;5.85;4.40;;;19.00;99.90;;;;;;5121401;28;20024;-72
2022/09/04 07:17:50;;;;;;;7.20;4.57;;;19.10;99.90;;;;;;5121062;28;20039;-70
2022/09/04 07:20:30;;;;;;;4.60;3.70;;;19.10;99.90;;;;;;5119378;28;20042;-70
2022/09/04 07:23:02;;;;;;;6.68;3.97;;;19.20;99.90;;;;;;5120164;28;20039;-71
2022/09/04 07:26:02;;;;;;;6.80;4.65;;;19.30;99.90;;;;;;5119698;28;20023;-70
2022/09/04 07:28:33;;;;;;;4.75;4.00;;;19.40;99.90;;;;;;5119061;28;20444;-71
2022/09/04 07:31:13;;;;;;;4.30;3.75;;;19.50;99.90;;;;;;5118739;28;20035;-71
2022/09/04 07:33:44;;;;;;;10.05;3.88;;;19.60;99.90;;;;;;5115999;28;20200;-70
2022/09/04 07:36:19;;;;;;;4.40;3.72;;;19.70;99.90;;;;;;5117182;28;20016;-69
2022/09/04 07:38:53;;;;;;;4.30;3.65;;;19.80;99.90;;;;;;5120723;28;20093;-69
2022/09/04 07:41:31;;;;;;;5.07;3.63;;;19.80;99.90;;;;;;5121558;28;20631;-70
2022/09/04 07:44:28;;;;;;;3.95;3.55;;;19.90;99.90;;;;;;5122637;28;20403;-70
2022/09/04 07:47:18;;;;;;;5.63;3.17;;;20.10;99.90;;;;;;5124577;28;20341;-70
2022/09/04 07:50:12;;;;;;;3.85;3.10;;;20.20;99.90;;;;;;5118018;28;20024;-71
2022/09/04 07:52:57;;;;;;;4.85;3.47;;;20.30;99.90;;;;;;5118116;28;20084;-71
2022/09/04 07:55:48;;;;;;;5.57;3.78;;;20.30;99.90;;;;;;5117820;27;20020;-71
2022/09/04 07:58:27;;;;;;;4.22;3.83;;;20.30;99.90;;;;;;5117941;28;20483;-70
2022/09/04 08:01:11;;;;;;;5.68;3.30;;;20.40;99.90;;;;;;5126011;28;20566;-70
2022/09/04 08:04:10;;;;;;;4.47;3.45;;;20.60;99.90;;;;;;5119784;28;20459;-70
2022/09/04 08:06:59;;;;;;;4.15;3.28;;;20.70;99.90;;;;;;5118662;28;20487;-71
2022/09/04 08:09:40;;;;;;;6.45;3.38;;;20.80;99.90;;;;;;5116752;27;20107;-71
2022/09/04 08:12:06;;;;;;;6.63;3.28;;;20.80;99.90;;;;;;5099795;22;20120;-71
2022/09/04 08:15:04;;;;;;;4.53;3.55;;;21.00;99.90;;;;;;5073309;28;20436;-70
2022/09/04 08:17:48;;;;;;;4.45;3.30;;;21.10;99.90;;;;;;5074615;28;20472;-71
2022/09/04 08:20:52;;;;;;;5.43;3.90;;;21.10;99.90;;;;;;5057209;28;20087;-71
2022/09/04 08:23:50;;;;;;;3.88;3.13;;;21.00;99.90;;;;;;4993345;28;20068;-71
2022/09/04 08:26:26;;;;;;;5.43;3.72;;;21.10;99.90;;;;;;4979012;28;20122;-71
2022/09/04 08:29:09;;;;;;;6.53;3.63;;;21.30;99.90;;;;;;4995031;28;20038;-69
2022/09/04 08:32:07;;;;;;;7.68;3.33;;;21.50;99.90;;;;;;4990819;28;20045;-71
2022/09/04 08:34:36;;;;;;;6.32;3.30;;;21.60;99.90;;;;;;4976753;28;20022;-71
2022/09/04 08:37:26;;;;;;;5.95;3.45;;;21.70;99.90;;;;;;4976523;28;20038;-71
2022/09/04 08:40:03;;;;;;;3.90;2.90;;;21.90;99.90;;;;;;4992797;28;20445;-71
2022/09/04 08:42:34;;;;;;;4.78;2.70;;;22.20;99.90;;;;;;4992718;28;20105;-73
2022/09/04 08:45:24;;;;;;;3.45;3.03;;;22.50;99.90;;;;;;4976487;28;20034;-71
2022/09/04 08:48:06;;;;;;;4.97;2.90;;;23.50;99.90;;;;;;4992736;28;20027;-71
2022/09/04 08:51:14;;;;;;;4.40;2.67;;;26.80;99.90;;;;;;4976442;28;20442;-72
2022/09/04 08:54:12;;;;;;;3.93;2.53;;;30.80;99.10;;;;;;4982401;28;20057;-70
2022/09/04 08:57:14;;;;;;;3.13;2.42;;;33.60;93.60;;;;;;4976211;28;20296;-71
2022/09/04 08:59:49;;;;;;;3.28;1.92;;;35.30;89.20;;;;;;5045474;28;20116;-73
2022/09/04 09:02:34;;;;;;;2.22;1.60;;;37.00;83.10;;;;;;5053831;28;20029;-69
2022/09/04 09:05:02;;;;;;;2.97;1.92;;;38.60;77.90;;;;;;5035686;28;20025;-69
2022/09/04 09:07:31;;;;;;;3.83;2.15;;;39.60;73.30;;;;;;5053941;28;20096;-68
2022/09/04 09:10:28;;;;;;;4.95;2.08;;;40.40;70.10;;;;;;5053885;28;20028;-69
2022/09/04 09:13:12;;;;;;;2.63;1.70;;;41.60;66.10;;;;;;5053651;28;20029;-69
2022/09/04 09:23:46;;;;;;;2.80;1.63;;;42.40;60.00;;;;;;5834318;23;19942;-70
2022/09/04 09:26:22;;;;;;;2.72;1.70;;;42.20;58.70;;;;;;5059338;22;20041;-67
2022/09/04 09:29:06;;;;;;;2.70;1.33;;;40.80;60.30;;;;;;5034422;28;20056;-67
2022/09/04 09:32:00;;;;;;;1.95;1.55;;;41.50;59.80;;;;;;5052747;28;20426;-68
2022/09/04 09:34:44;;;;;;;3.20;1.60;;;41.80;58.80;;;;;;5053783;28;20017;-67
2022/09/04 09:37:27;;;;;;;2.92;1.40;;;41.90;58.50;;;;;;5047195;28;20035;-68
2022/09/04 09:40:06;;;;;;;2.53;1.55;;;41.80;58.80;;;;;;5056149;28;20040;-67
2022/09/04 09:42:57;;;;;;;2.55;1.40;;;42.10;58.10;;;;;;5073704;28;20503;-68
2022/09/04 09:45:44;;;;;;;2.97;1.30;;;42.00;58.20;;;;;;5055561;28;20373;-71
2022/09/04 09:48:39;;;;;;;2.75;1.55;;;41.90;57.50;;;;;;5073742;28;20059;-69
2022/09/04 09:51:32;;;;;;;1.65;1.38;;;41.70;57.50;;;;;;5073989;28;20070;-69
2022/09/04 09:54:36;;;;;;;2.90;1.13;;;42.00;57.50;;;;;;5055621;28;20035;-69
2022/09/04 09:57:11;;;;;;;4.10;1.55;;;42.40;56.60;;;;;;5055544;28;20017;-68
2022/09/04 09:59:55;;;;;;;3.45;1.63;;;42.70;56.50;;;;;;5055246;28;20388;-69
2022/09/04 10:02:33;;;;;;;2.08;1.60;;;42.60;56.00;;;;;;5055910;28;20082;-69
2022/09/04 10:05:28;;;;;;;10.43;1.83;;;42.70;56.00;;;;;;5073629;28;20385;-67
2022/09/04 10:08:13;;;;;;;2.78;1.80;;;42.80;56.00;;;;;;5051639;28;20040;-68
2022/09/04 10:10:50;;;;;;;3.20;1.48;;;42.50;55.80;;;;;;5073627;28;20457;-67
2022/09/04 10:13:33;;;;;;;2.47;1.38;;;42.60;55.10;;;;;;5073991;28;20416;-68
2022/09/04 10:16:18;;;;;;;2.20;1.10;;;42.90;54.90;;;;;;5073635;28;20028;-68
2022/09/04 10:19:20;;;;;;;3.22;1.50;;;42.70;54.70;;;;;;5074018;28;20020;-67
2022/09/04 10:22:23;;;;;;;1.95;1.55;;;42.80;54.50;;;;;;5055364;28;20021;-67
2022/09/04 10:25:08;;;;;;;1.33;1.10;;;42.80;54.50;;;;;;5073349;28;20416;-68
2022/09/04 10:27:44;;;;;;;2.30;1.50;;;43.00;54.00;;;;;;5073074;28;20024;-67
2022/09/04 10:30:17;;;;;;;2.25;1.40;;;42.60;52.90;;;;;;5055543;28;20393;-68
2022/09/04 10:33:05;;;;;;;1.65;1.10;;;42.00;52.80;;;;;;5057515;28;20016;-69
2022/09/04 10:35:38;;;;;;;1.77;1.20;;;41.80;52.20;;;;;;5059411;28;20473;-68
2022/09/04 10:42:18;;;;;;;2.78;1.27;;;40.00;54.60;;;;;;4973138;28;20558;-68
2022/09/04 10:45:30;;;;;;;2.38;1.00;;;40.30;54.20;;;;;;4976464;28;20088;-69
2022/09/04 10:48:16;;;;;;;3.25;1.55;;;39.50;55.10;;;;;;4919020;29;20597;-69
2022/09/04 10:50:57;;;;;;;1.80;1.50;;;40.70;54.30;;;;;;4918736;29;20437;-70
2022/09/04 10:53:37;;;;;;;1.80;1.50;;;38.70;53.90;;;;;;4903328;29;20126;-70
2022/09/04 10:56:07;;;;;;;1.65;1.20;;;35.40;57.20;;;;;;4918863;29;20024;-72
2022/09/04 10:59:09;;;;;;;1.85;1.25;;;35.20;57.30;;;;;;4902883;29;20044;-69
2022/09/04 11:02:06;;;;;;;1.98;1.23;;;36.30;58.00;;;;;;4919349;29;20025;-71
2022/09/04 11:05:00;;;;;;;1.33;1.10;;;35.80;56.30;;;;;;4869037;29;20094;-70
2022/09/04 11:07:54;;;;;;;1.23;1.02;;;35.40;58.00;;;;;;4902878;29;20031;-69
2022/09/04 11:10:42;;;;;;;1.70;1.10;;;33.90;60.10;;;;;;4918731;29;20600;-70
2022/09/04 11:13:29;;;;;;;1.70;1.30;;;32.30;62.90;;;;;;4918744;29;20425;-68
2022/09/04 11:16:31;;;;;;;1.55;1.40;;;31.30;63.90;;;;;;4937805;28;20058;-69
2022/09/04 11:19:27;;;;;;;1.83;1.20;;;30.20;66.20;;;;;;5000175;28;20080;-68
2022/09/04 11:22:17;;;;;;;5.28;3.17;;;29.40;68.10;;;;;;4999721;28;20021;-71
2022/09/04 11:25:32;;;;;;;1.92;1.55;;;29.00;68.20;;;;;;5039345;28;20396;-69
2022/09/04 11:28:28;;;;;;;2.50;1.60;;;28.50;69.20;;;;;;5077640;28;20033;-69
2022/09/04 11:31:45;;;;;;;2.38;1.42;;;28.20;70.60;;;;;;5077233;28;20492;-69
2022/09/04 11:34:49;;;;;;;2.23;1.17;;;27.70;70.90;;;;;;5005618;28;20041;-69
2022/09/04 11:37:39;;;;;;;3.67;1.30;;;27.60;67.70;;;;;;5078022;28;20251;-72
2022/09/04 11:40:17;;;;;;;1.70;1.20;;;27.60;68.10;;;;;;5060750;28;20020;-73
2022/09/04 11:42:49;;;;;;;3.50;1.10;;;27.40;67.30;;;;;;5077612;28;20024;-71
2022/09/04 11:45:33;;;;;;;3.00;1.10;;;27.30;68.00;;;;;;5058160;28;20021;-68
2022/09/04 11:48:52;;;;;;;1.90;1.42;;;27.10;67.30;;;;;;5077261;28;20032;-68
2022/09/04 11:51:39;;;;;;;1.70;1.30;;;27.30;66.20;;;;;;5058370;28;20465;-73
2022/09/04 11:54:10;;;;;;;;;;;27.30;65.50;;;;;;5076806;28;20106;-72
2022/09/04 11:56:54;;;;;;;2.20;1.40;;;27.20;69.10;;;;;;5076286;28;20351;-73
2022/09/04 11:59:33;;;;;;;3.67;1.38;;;27.00;67.60;;;;;;5074378;28;20020;-68
2022/09/04 12:02:30;;;;;;;1.88;1.35;;;27.00;67.60;;;;;;5055978;28;20366;-69
2022/09/04 12:05:02;;;;;;;37.90;18.85;;;27.00;67.10;;;;;;5056978;28;20032;-69
2022/09/04 12:07:37;;;;;;;37.42;20.42;;;27.00;72.20;;;;;;5056687;28;20499;-69
2022/09/04 12:10:18;;;;;;;4.00;1.55;;;26.80;70.30;;;;;;5058143;28;20036;-70
2022/09/04 12:13:09;;;;;;;1.30;1.20;;;26.90;67.20;;;;;;5058646;28;20031;-72
2022/09/04 12:16:09;;;;;;;4.50;3.10;;;26.80;62.50;;;;;;5076743;28;20157;-72
2022/09/04 12:18:43;;;;;;;2.80;1.55;;;26.80;62.30;;;;;;5057637;28;20025;-71
2022/09/04 12:21:52;;;;;;;16.85;11.90;;;26.90;65.80;;;;;;5057407;28;20522;-72
2022/09/04 12:24:45;;;;;;;3.00;1.30;;;26.90;66.40;;;;;;5058519;28;20024;-68
2022/09/04 12:27:20;;;;;;;373.05;188.45;;;27.00;66.60;;;;;;5057189;28;20029;-68
2022/09/04 12:30:02;;;;;;;61.58;26.95;;;26.80;71.20;;;;;;5057333;28;20393;-67
2022/09/04 12:33:05;;;;;;;68.65;29.52;;;26.60;68.20;;;;;;5057439;28;20041;-68
2022/09/04 12:36:09;;;;;;;50.88;23.27;;;26.40;70.50;;;;;;5075200;28;20024;-68
2022/09/04 12:39:05;;;;;;;12.57;7.57;;;26.20;69.90;;;;;;5057354;28;20107;-67
2022/09/04 12:41:42;;;;;;;5.93;3.33;;;26.30;70.20;;;;;;5057020;28;20028;-68
2022/09/04 12:44:44;;;;;;;3.78;1.70;;;26.40;69.70;;;;;;5075205;28;20086;-69
2022/09/04 12:47:27;;;;;;;3.58;2.15;;;26.50;69.10;;;;;;5056906;28;20028;-68
2022/09/04 12:50:17;;;;;;;2.00;1.52;;;26.70;68.50;;;;;;5074947;28;20017;-67
2022/09/04 12:53:13;;;;;;;2.80;1.55;;;26.70;66.80;;;;;;5056931;28;20040;-68
2022/09/04 12:56:04;;;;;;;2.42;1.55;;;26.70;66.40;;;;;;5056723;28;20044;-68
2022/09/04 12:59:08;;;;;;;2.78;0.93;;;26.70;66.10;;;;;;5074674;28;20031;-68
2022/09/04 13:01:35;;;;;;;1.33;0.90;;;26.80;65.80;;;;;;5057565;28;20020;-68
2022/09/04 13:04:19;;;;;;;4.70;2.20;;;26.80;65.10;;;;;;5057045;28;20017;-69
2022/09/04 13:06:47;;;;;;;2.85;1.67;;;27.30;66.30;;;;;;5056439;28;20116;-70
2022/09/04 13:09:32;;;;;;;3.33;1.25;;;27.80;65.10;;;;;;5074635;28;20028;-66
2022/09/04 13:12:07;;;;;;;2.72;1.25;;;27.80;64.70;;;;;;5056259;28;20023;-67
2022/09/04 13:15:01;;;;;;;2.65;1.30;;;27.60;64.60;;;;;;5074427;28;20044;-67
2022/09/04 13:17:44;;;;;;;1.83;0.90;;;27.30;66.60;;;;;;5074917;28;20028;-66
2022/09/04 13:20:44;;;;;;;2.03;1.30;;;27.10;66.40;;;;;;5056535;28;20078;-66
2022/09/04 13:23:17;;;;;;;2.25;1.10;;;26.80;67.40;;;;;;5021941;28;20056;-66
2022/09/04 13:26:02;;;;;;;2.38;1.00;;;27.10;66.00;;;;;;5058049;28;20021;-67
2022/09/04 13:29:00;;;;;;;1.48;1.10;;;27.10;65.00;;;;;;5057386;28;20052;-68
2022/09/04 13:31:34;;;;;;;3.78;3.30;;;27.10;63.90;;;;;;5057418;28;20020;-68
2022/09/04 13:34:06;;;;;;;2.30;1.60;;;27.20;65.50;;;;;;5057117;28;20028;-68
2022/09/04 13:37:03;;;;;;;2.22;1.70;;;27.30;66.30;;;;;;5057433;28;20051;-67
2022/09/04 13:39:53;;;;;;;3.17;2.08;;;27.40;66.00;;;;;;5056945;28;20427;-67
2022/09/04 13:42:55;;;;;;;3.28;1.00;;;27.40;66.30;;;;;;5056278;28;20109;-67
2022/09/04 13:45:24;;;;;;;3.42;1.10;;;27.50;64.60;;;;;;5056177;28;20123;-67
2022/09/04 13:48:10;;;;;;;1.65;1.05;;;27.60;63.80;;;;;;5055877;28;20476;-67
2022/09/04 13:50:47;;;;;;;2.35;1.10;;;27.60;65.00;;;;;;5074551;28;20029;-67
2022/09/04 13:53:27;;;;;;;1.95;1.13;;;27.50;65.50;;;;;;5073941;28;20396;-67
2022/09/04 13:55:58;;;;;;;2.10;1.10;;;27.40;65.00;;;;;;5074259;28;20404;-67
2022/09/04 13:58:33;;;;;;;5.13;1.27;;;27.50;64.80;;;;;;5055875;28;20108;-67
2022/09/04 14:01:05;;;;;;;1.90;1.20;;;27.50;65.50;;;;;;5056332;28;20029;-67
2022/09/04 14:03:47;;;;;;;3.15;1.23;;;27.70;65.30;;;;;;5074091;28;20024;-67
2022/09/04 14:06:17;;;;;;;3.13;0.90;;;27.90;63.70;;;;;;5073732;28;20025;-66
2022/09/04 14:08:44;;;;;;;1.50;1.35;;;27.80;63.60;;;;;;5055585;28;20029;-68
2022/09/04 14:11:30;;;;;;;3.67;2.53;;;27.80;62.40;;;;;;5074221;28;20035;-67
2022/09/04 14:14:22;;;;;;;2.72;2.35;;;27.80;62.80;;;;;;5056036;28;20394;-67
2022/09/04 14:16:51;;;;;;;2.47;0.93;;;27.90;63.40;;;;;;5055956;28;20029;-67
2022/09/04 14:20:03;;;;;;;6.15;2.72;;;27.90;62.50;;;;;;5074175;28;20147;-67
2022/09/04 14:23:10;;;;;;;2.08;1.50;;;27.80;63.00;;;;;;5051214;28;20035;-68
2022/09/04 14:25:49;;;;;;;1.42;1.00;;;27.80;62.80;;;;;;4956951;28;20125;-68
2022/09/04 14:28:34;;;;;;;1.23;1.00;;;27.90;61.60;;;;;;4974206;28;20181;-68
2022/09/04 14:31:06;;;;;;;2.30;1.10;;;27.90;62.40;;;;;;4973697;28;20186;-67